Decoded Metar for LFOT (TOURS in FRANCE) (IATA:TUF) | Meteo·Mobile Aviation Weather
aviador You're here:

LFOT Decoded Metar

TOURS in FRANCE
Report Time2018-08-21 16:00:00
UTC Time2018-08-21 16:06:42
Flight Rules vfr VFR
Wind350° at 06 kt
W.Decomp.*RWY 02: 5.2 kt HW 3 kt LCW
W.Rank350° ranks 21
Current wind is above 350° avg. (4.8)
Visibility9999 m
Phenomena:N/A
Clouds:N/A
Expected CloudBase > 5,600 ft AGL from Temp-Dew spread
CeilingNone
Temp29°C (ISA +15)
Dew Point15°C (43% RH)
Heat Index28.9°C
AAT28.5°C
QNH1018 hPa
Density Alt2,103 ft
Elevation354 ft
Report Wrong Elevation
Raw Report
METAR LFOT 211600Z AUTO 35006KT 310V030 CAVOK 29/15 Q1018 NOSIG=

Extra information for LFOT:More info

Metar Taf Metar & Taf Last 4 Metars F.Rules Stats Wind Profile Meteogram Temp Stats Airport Information Weather charts Add Link Nearby VenuesMetar ALERT Operation Metar Decoded Social comments